createdAt,value
2017-11-11T11:41:00.106Z,224.00
2017-11-11T11:42:00.091Z,168.00
2017-11-11T11:43:53.104Z,180.00
2017-11-11T11:44:53.096Z,244.00
2017-11-11T11:46:46.068Z,160.00
2017-11-11T11:47:46.099Z,228.00
2017-11-11T11:49:39.129Z,456.00
2017-11-11T11:50:39.103Z,456.00
2017-11-11T11:52:32.073Z,472.00
2017-11-11T11:53:32.113Z,364.00
2017-11-11T11:55:25.140Z,400.00
2017-11-11T11:56:25.113Z,580.00
2017-11-11T11:58:18.081Z,596.00
2017-11-11T11:59:18.129Z,504.00
2017-11-11T12:01:11.145Z,528.00
2017-11-11T12:02:11.122Z,516.00
2017-11-11T12:04:04.092Z,524.00
2017-11-11T12:05:04.132Z,520.00
2017-11-11T12:06:57.266Z,496.00
2017-11-11T12:07:57.244Z,608.00
2017-11-11T12:08:57.297Z,772.00
2017-11-11T12:09:57.334Z,768.00
2017-11-11T12:10:57.373Z,696.00
2017-11-11T12:11:57.424Z,636.00
2017-11-11T12:12:57.454Z,792.00
2017-11-11T12:13:57.494Z,932.00
2017-11-11T12:14:57.541Z,884.00
2017-11-11T12:15:57.580Z,808.00
2017-11-11T12:16:57.620Z,780.00
2017-11-11T12:17:57.665Z,780.00
2017-11-11T12:18:57.707Z,784.00
2017-11-11T12:19:57.758Z,796.00
2017-11-11T12:20:57.791Z,768.00
2017-11-11T12:21:57.834Z,772.00
2017-11-11T12:22:57.892Z,760.00
2017-11-11T12:23:57.917Z,656.00
2017-11-11T12:24:57.973Z,564.00
2017-11-11T12:25:58.001Z,516.00
2017-11-11T12:26:58.046Z,524.00
2017-11-11T12:27:58.088Z,476.00
2017-11-11T12:28:58.130Z,500.00
2017-11-11T12:29:58.174Z,600.00
2017-11-11T12:30:58.213Z,688.00
2017-11-11T12:31:58.254Z,696.00
2017-11-11T12:32:58.299Z,788.00
2017-11-11T12:33:58.341Z,776.00
2017-11-11T12:34:58.381Z,708.00
2017-11-11T12:35:58.424Z,712.00
2017-11-11T12:36:58.465Z,640.00
2017-11-11T12:37:58.508Z,592.00
2017-11-11T12:38:58.559Z,668.00
2017-11-11T12:39:58.605Z,648.00
2017-11-11T12:40:58.651Z,592.00
2017-11-11T12:41:58.680Z,692.00
2017-11-11T12:42:58.722Z,704.00
2017-11-11T12:43:58.762Z,656.00
2017-11-11T12:44:58.807Z,596.00
2017-11-11T12:45:58.848Z,556.00
2017-11-11T12:46:58.891Z,516.00
2017-11-11T12:47:58.935Z,528.00
2017-11-11T12:48:58.976Z,572.00
2017-11-11T12:49:59.024Z,612.00
2017-11-11T12:50:59.060Z,624.00
2017-11-11T12:51:59.110Z,616.00
2017-11-11T12:52:59.143Z,696.00
2017-11-11T12:53:59.193Z,664.00
2017-11-11T12:54:59.232Z,632.00
2017-11-11T12:55:59.273Z,600.00
2017-11-11T12:56:59.315Z,580.00
2017-11-11T12:57:59.358Z,592.00
2017-11-11T12:58:59.401Z,556.00
2017-11-11T12:59:59.443Z,520.00
2017-11-11T13:00:59.492Z,528.00
2017-11-11T13:01:59.529Z,528.00
2017-11-11T13:02:59.573Z,492.00
2017-11-11T13:03:59.613Z,476.00
2017-11-11T13:04:59.665Z,456.00
2017-11-11T13:05:59.698Z,484.00
2017-11-11T13:06:59.744Z,520.00
2017-11-11T13:07:59.789Z,456.00
2017-11-11T13:08:59.824Z,396.00
2017-11-11T13:09:59.871Z,388.00
2017-11-11T13:10:59.912Z,428.00
2017-11-11T13:11:59.956Z,416.00
2017-11-11T13:12:59.997Z,388.00
2017-11-11T13:14:00.040Z,408.00
2017-11-11T13:15:00.090Z,384.00
2017-11-11T13:16:00.121Z,416.00
2017-11-11T13:17:00.178Z,412.00
2017-11-11T13:18:00.208Z,372.00
2017-11-11T13:19:00.251Z,420.00
2017-11-11T13:20:00.290Z,432.00
2017-11-11T13:21:00.334Z,444.00
2017-11-11T13:22:00.379Z,432.00
2017-11-11T13:23:00.419Z,428.00
2017-11-11T13:24:00.461Z,416.00
2017-11-11T13:25:00.502Z,420.00
2017-11-11T13:26:00.549Z,412.00
2017-11-11T13:27:00.590Z,388.00
2017-11-11T13:28:00.628Z,412.00
2017-11-11T13:29:00.672Z,452.00
2017-11-11T13:30:00.714Z,476.00
2017-11-11T13:31:00.759Z,472.00
2017-11-11T13:32:00.813Z,488.00
2017-11-11T13:33:00.844Z,492.00
2017-11-11T13:34:00.883Z,476.00
2017-11-11T13:35:00.925Z,460.00
2017-11-11T13:36:00.974Z,468.00
2017-11-11T13:37:01.012Z,432.00
2017-11-11T13:38:01.056Z,408.00
2017-11-11T13:39:01.096Z,420.00
2017-11-11T13:40:01.139Z,428.00
2017-11-11T13:41:01.181Z,424.00
2017-11-11T13:42:01.224Z,416.00
2017-11-11T13:43:01.264Z,424.00
2017-11-11T13:44:01.308Z,428.00
2017-11-11T13:45:01.363Z,416.00
2017-11-11T13:46:01.399Z,416.00
2017-11-11T13:47:01.444Z,408.00
2017-11-11T13:48:01.476Z,392.00
2017-11-11T13:49:01.517Z,352.00
2017-11-11T13:50:01.562Z,380.00
2017-11-11T13:51:01.603Z,376.00
2017-11-11T13:52:01.649Z,352.00
2017-11-11T13:53:01.688Z,360.00
2017-11-11T13:54:01.730Z,372.00
2017-11-11T13:55:01.773Z,292.00
2017-11-11T13:56:01.824Z,256.00
2017-11-11T13:57:01.868Z,220.00
2017-11-11T13:58:01.903Z,188.00
2017-11-11T13:59:01.942Z,176.00
2017-11-11T14:00:01.985Z,172.00
2017-11-11T14:01:02.030Z,156.00
2017-11-11T14:02:02.080Z,156.00
2017-11-11T14:03:02.114Z,192.00
2017-11-11T14:04:02.161Z,244.00
2017-11-11T14:05:02.197Z,248.00
2017-11-11T14:06:02.251Z,196.00
2017-11-11T14:07:02.284Z,180.00
2017-11-11T14:08:02.328Z,136.00
2017-11-11T14:09:02.375Z,128.00
2017-11-11T14:10:02.409Z,124.00
2017-11-11T14:11:02.456Z,116.00
2017-11-11T14:12:02.495Z,116.00
2017-11-11T14:13:02.538Z,132.00
2017-11-11T14:14:02.580Z,108.00
2017-11-11T14:15:02.623Z,104.00
2017-11-11T14:16:02.667Z,112.00
2017-11-11T14:17:02.707Z,128.00
2017-11-11T14:18:02.753Z,140.00
2017-11-11T14:19:02.793Z,124.00
2017-11-11T14:20:02.845Z,92.00
2017-11-11T14:21:02.875Z,112.00
2017-11-11T14:22:02.921Z,120.00
2017-11-11T14:23:02.970Z,100.00
2017-11-11T14:24:03.015Z,76.00
2017-11-11T14:25:03.050Z,88.00
2017-11-11T14:26:03.103Z,92.00
2017-11-11T14:27:03.133Z,88.00
2017-11-11T14:28:03.180Z,88.00
2017-11-11T14:29:03.214Z,100.00
2017-11-11T14:30:03.258Z,100.00
2017-11-11T14:31:03.312Z,84.00
2017-11-11T14:32:03.341Z,84.00
2017-11-11T14:33:03.384Z,68.00
2017-11-11T14:34:03.426Z,80.00
2017-11-11T14:35:03.469Z,96.00
2017-11-11T14:36:03.512Z,68.00
2017-11-11T14:37:03.554Z,72.00
2017-11-11T14:38:03.601Z,64.00
2017-11-11T14:39:03.639Z,48.00
2017-11-11T14:40:03.678Z,48.00
2017-11-11T14:41:03.725Z,52.00
2017-11-11T14:42:03.764Z,68.00
2017-11-11T14:43:03.805Z,60.00
2017-11-11T14:44:03.846Z,52.00
2017-11-11T14:45:03.891Z,56.00
2017-11-11T14:46:03.937Z,60.00
2017-11-11T14:47:03.978Z,48.00
2017-11-11T14:48:04.017Z,36.00
2017-11-11T14:49:04.058Z,40.00
2017-11-11T14:50:04.106Z,32.00
2017-11-11T14:51:04.143Z,32.00
2017-11-11T14:52:04.193Z,40.00
2017-11-11T14:53:04.228Z,44.00
2017-11-11T14:54:04.269Z,52.00
2017-11-11T14:55:04.312Z,48.00
2017-11-11T14:56:04.354Z,36.00
2017-11-11T14:57:04.396Z,36.00
2017-11-11T14:58:04.438Z,36.00
2017-11-11T14:59:04.481Z,36.00
2017-11-11T15:00:04.523Z,36.00
2017-11-11T15:01:04.566Z,28.00
2017-11-11T15:02:04.606Z,20.00
2017-11-11T15:03:04.650Z,24.00
2017-11-11T15:04:04.699Z,24.00
2017-11-11T15:05:04.741Z,20.00
2017-11-11T15:06:04.778Z,16.00
2017-11-11T15:07:04.824Z,20.00
2017-11-11T15:08:04.862Z,20.00
2017-11-11T15:09:04.908Z,12.00
2017-11-11T15:10:04.947Z,16.00
2017-11-11T15:11:04.989Z,20.00
2017-11-11T15:12:05.031Z,24.00
2017-11-11T15:13:05.074Z,20.00
2017-11-11T15:14:05.118Z,16.00
2017-11-11T15:15:05.164Z,16.00
2017-11-11T15:16:05.197Z,16.00
2017-11-11T15:17:05.243Z,12.00
2017-11-11T15:18:05.285Z,12.00
2017-11-11T15:19:05.332Z,8.00
2017-11-11T15:20:05.370Z,8.00
2017-11-11T15:21:05.414Z,12.00
2017-11-11T15:22:05.460Z,8.00
2017-11-11T15:23:05.497Z,12.00
2017-11-11T15:24:05.550Z,12.00
2017-11-11T15:25:05.589Z,8.00
2017-11-11T15:26:05.623Z,8.00
2017-11-11T15:27:05.666Z,8.00
2017-11-11T15:28:05.709Z,4.00
2017-11-11T15:29:05.751Z,8.00
2017-11-11T15:30:05.793Z,8.00
2017-11-11T15:31:05.836Z,4.00
2017-11-11T15:32:05.879Z,4.00
2017-11-11T15:33:05.923Z,4.00
2017-11-11T15:34:05.965Z,0.00
2017-11-11T15:35:06.004Z,4.00
2017-11-11T15:36:06.051Z,4.00
2017-11-11T15:37:06.089Z,4.00
2017-11-11T15:38:06.132Z,4.00
2017-11-11T15:39:06.173Z,0.00
2017-11-11T15:40:06.216Z,0.00
2017-11-11T15:41:06.258Z,0.00
2017-11-11T15:42:06.302Z,0.00
2017-11-11T15:43:06.342Z,0.00
2017-11-11T15:44:06.388Z,0.00
2017-11-11T15:45:06.426Z,0.00
2017-11-11T15:46:06.468Z,0.00
2017-11-11T15:47:06.513Z,0.00
2017-11-11T15:48:06.552Z,0.00
2017-11-11T15:49:06.598Z,0.00
2017-11-11T15:50:06.640Z,0.00
2017-11-11T15:51:06.677Z,0.00
2017-11-11T15:52:06.728Z,0.00
2017-11-11T15:53:06.764Z,0.00
2017-11-11T15:54:06.808Z,0.00
2017-11-11T15:55:06.850Z,0.00
2017-11-11T15:56:06.889Z,0.00
2017-11-11T15:57:06.931Z,0.00
2017-11-11T15:58:06.972Z,0.00
2017-11-11T15:59:07.017Z,0.00
2017-11-11T16:00:07.061Z,0.00
2017-11-11T16:01:07.098Z,0.00
2017-11-11T16:02:07.142Z,0.00
2017-11-11T16:03:07.183Z,0.00
2017-11-11T16:04:07.228Z,0.00
2017-11-11T16:05:07.268Z,0.00
2017-11-11T16:06:07.309Z,0.00
2017-11-11T16:07:07.357Z,0.00
2017-11-11T16:08:07.395Z,0.00
2017-11-11T16:09:07.441Z,0.00
2017-11-11T16:10:07.481Z,0.00
2017-11-11T16:11:07.523Z,0.00
2017-11-11T16:12:07.562Z,0.00
2017-11-11T16:13:07.607Z,0.00
2017-11-11T16:14:07.649Z,0.00
2017-11-11T16:15:07.690Z,0.00
2017-11-11T16:16:07.734Z,0.00
2017-11-11T16:17:07.773Z,0.00
2017-11-11T16:18:07.827Z,0.00
2017-11-11T16:19:07.860Z,0.00
2017-11-11T16:20:07.900Z,0.00
2017-11-11T16:21:07.943Z,0.00
2017-11-11T16:22:07.987Z,0.00
2017-11-11T16:23:08.029Z,0.00
2017-11-11T16:24:08.076Z,0.00
2017-11-11T16:25:08.123Z,0.00
2017-11-11T16:26:08.159Z,0.00
2017-11-11T16:27:08.199Z,0.00
2017-11-11T16:28:08.240Z,0.00
2017-11-11T16:29:08.289Z,0.00
2017-11-11T16:30:08.325Z,0.00
2017-11-11T16:31:08.367Z,0.00
2017-11-11T16:32:08.410Z,0.00
2017-11-11T16:33:08.452Z,0.00
2017-11-11T16:34:08.495Z,0.00
2017-11-11T16:35:08.542Z,0.00
2017-11-11T16:36:08.580Z,0.00
2017-11-11T16:37:08.620Z,0.00
2017-11-11T16:38:08.667Z,0.00
2017-11-11T16:39:08.705Z,0.00
2017-11-11T16:40:08.747Z,0.00
2017-11-11T16:41:08.791Z,0.00
2017-11-11T16:42:08.837Z,0.00
2017-11-11T16:43:08.876Z,0.00
2017-11-11T16:44:08.916Z,0.00
2017-11-11T16:45:08.959Z,0.00
2017-11-11T16:46:09.000Z,0.00
2017-11-11T16:47:09.043Z,0.00
2017-11-11T16:48:09.085Z,0.00
2017-11-11T16:49:09.130Z,0.00
2017-11-11T16:50:09.171Z,0.00
2017-11-11T16:51:09.214Z,0.00
2017-11-11T16:52:09.261Z,0.00
2017-11-11T16:53:09.298Z,0.00
2017-11-11T16:54:09.339Z,0.00
2017-11-11T16:55:09.383Z,0.00
2017-11-11T16:56:09.427Z,0.00
2017-11-11T16:57:09.464Z,0.00
2017-11-11T16:58:09.515Z,0.00
2017-11-11T16:59:09.551Z,0.00
2017-11-11T17:00:09.592Z,0.00
2017-11-11T17:01:09.633Z,0.00
2017-11-11T17:02:09.676Z,0.00
2017-11-11T17:03:09.719Z,0.00
2017-11-11T17:04:09.761Z,0.00
2017-11-11T17:05:09.806Z,0.00
2017-11-11T17:06:09.848Z,0.00
2017-11-11T17:07:09.889Z,0.00
2017-11-11T17:08:09.929Z,0.00
2017-11-11T17:09:09.970Z,0.00
2017-11-11T17:10:10.015Z,0.00
2017-11-11T17:11:10.056Z,0.00
2017-11-11T17:12:10.095Z,0.00
2017-11-11T17:13:10.138Z,0.00
2017-11-11T17:14:10.180Z,0.00
2017-11-11T17:15:10.221Z,0.00
2017-11-11T17:16:10.265Z,0.00
2017-11-11T17:17:10.313Z,0.00
2017-11-11T17:18:10.351Z,0.00
2017-11-11T17:19:10.392Z,0.00
2017-11-11T17:20:10.435Z,0.00
2017-11-11T17:21:10.473Z,0.00
2017-11-11T17:22:10.521Z,0.00
2017-11-11T17:23:10.561Z,0.00
2017-11-11T17:24:10.601Z,0.00
2017-11-11T17:25:10.644Z,0.00
2017-11-11T17:26:10.688Z,0.00
2017-11-11T17:27:10.726Z,0.00
2017-11-11T17:28:10.772Z,0.00
2017-11-11T17:29:10.815Z,0.00
2017-11-11T17:30:10.857Z,0.00
2017-11-11T17:31:10.898Z,0.00
2017-11-11T17:32:10.940Z,0.00
2017-11-11T17:33:10.982Z,0.00
2017-11-11T17:34:11.024Z,0.00
2017-11-11T17:35:11.066Z,0.00
2017-11-11T17:36:11.109Z,0.00
2017-11-11T17:37:11.152Z,0.00
2017-11-11T17:38:11.193Z,0.00
2017-11-11T17:39:11.244Z,0.00
2017-11-11T17:40:11.278Z,0.00
2017-11-11T17:41:11.319Z,0.00
2017-11-11T17:42:11.371Z,0.00
2017-11-11T17:43:11.404Z,0.00
2017-11-11T17:44:11.449Z,0.00
2017-11-11T17:45:11.491Z,0.00
2017-11-11T17:46:11.534Z,0.00
2017-11-11T17:47:11.573Z,0.00
2017-11-11T17:48:11.632Z,0.00
2017-11-11T17:49:11.656Z,0.00
2017-11-11T17:50:11.700Z,0.00
2017-11-11T17:51:11.743Z,0.00
2017-11-11T17:52:11.784Z,0.00
2017-11-11T17:53:11.826Z,0.00
2017-11-11T17:54:11.879Z,0.00
2017-11-11T17:55:11.911Z,0.00
2017-11-11T17:56:11.952Z,0.00
2017-11-11T17:57:11.994Z,0.00
2017-11-11T17:58:12.040Z,0.00
2017-11-11T17:59:12.085Z,0.00
2017-11-11T18:00:12.122Z,0.00
2017-11-11T18:01:12.167Z,0.00
2017-11-11T18:02:12.206Z,0.00
2017-11-11T18:03:12.250Z,0.00
2017-11-11T18:04:12.292Z,0.00
2017-11-11T18:05:12.332Z,0.00
2017-11-11T18:06:12.377Z,0.00
2017-11-11T18:07:12.418Z,0.00
2017-11-11T18:08:12.461Z,0.00
2017-11-11T18:09:12.500Z,0.00
2017-11-11T18:10:12.544Z,0.00
2017-11-11T18:11:12.588Z,0.00
2017-11-11T18:12:12.630Z,0.00
2017-11-11T18:13:12.670Z,0.00
2017-11-11T18:14:12.712Z,0.00
2017-11-11T18:15:12.754Z,0.00
2017-11-11T18:16:12.796Z,0.00
2017-11-11T18:17:12.837Z,0.00
2017-11-11T18:18:12.880Z,0.00
2017-11-11T18:19:12.927Z,0.00
2017-11-11T18:20:12.964Z,0.00
2017-11-11T18:21:13.013Z,0.00
2017-11-11T18:22:13.054Z,0.00
2017-11-11T18:23:13.091Z,0.00
2017-11-11T18:24:13.132Z,0.00
2017-11-11T18:25:13.180Z,0.00
2017-11-11T18:26:13.216Z,0.00
2017-11-11T18:27:13.257Z,0.00
2017-11-11T18:28:13.300Z,0.00
2017-11-11T18:29:13.343Z,0.00
2017-11-11T18:30:13.394Z,0.00
2017-11-11T18:31:13.427Z,0.00
2017-11-11T18:32:13.468Z,0.00
2017-11-11T18:33:13.512Z,0.00
2017-11-11T18:34:13.557Z,0.00
2017-11-11T18:35:13.598Z,0.00
2017-11-11T18:36:13.661Z,0.00
2017-11-11T18:37:13.679Z,0.00
2017-11-11T18:38:13.723Z,0.00
2017-11-11T18:39:13.764Z,0.00
2017-11-11T18:40:13.804Z,0.00
2017-11-11T18:41:13.847Z,0.00
2017-11-11T18:42:13.895Z,0.00
2017-11-11T18:43:13.934Z,0.00
2017-11-11T18:44:13.978Z,0.00
2017-11-11T18:45:14.020Z,0.00
2017-11-11T18:46:14.059Z,0.00
2017-11-11T18:47:14.107Z,0.00
2017-11-11T18:48:14.144Z,0.00
2017-11-11T18:49:14.185Z,0.00
2017-11-11T18:50:14.227Z,0.00
2017-11-11T18:51:14.271Z,0.00
2017-11-11T18:52:14.311Z,0.00
2017-11-11T18:53:14.356Z,0.00
2017-11-11T18:54:14.397Z,0.00
2017-11-11T18:55:14.440Z,0.00
2017-11-11T18:56:14.481Z,0.00
2017-11-11T18:57:14.526Z,0.00
2017-11-11T18:58:14.566Z,0.00
2017-11-11T18:59:14.608Z,0.00
2017-11-11T19:00:14.650Z,0.00
2017-11-11T19:01:14.694Z,0.00
2017-11-11T19:02:14.737Z,0.00
2017-11-11T19:03:14.782Z,0.00
2017-11-11T19:04:14.819Z,0.00
2017-11-11T19:05:14.861Z,0.00
2017-11-11T19:06:14.913Z,0.00
2017-11-11T19:07:14.947Z,0.00
2017-11-11T19:08:14.992Z,0.00
2017-11-11T19:09:15.031Z,0.00
2017-11-11T19:10:15.076Z,0.00
2017-11-11T19:11:15.115Z,0.00
2017-11-11T19:12:15.156Z,0.00
2017-11-11T19:13:15.201Z,0.00
2017-11-11T19:14:15.245Z,0.00
2017-11-11T19:15:15.282Z,0.00
2017-11-11T19:16:15.325Z,0.00
2017-11-11T19:17:15.368Z,0.00
2017-11-11T19:18:15.414Z,0.00
2017-11-11T19:19:15.465Z,0.00
2017-11-11T19:20:15.499Z,0.00
2017-11-11T19:21:15.545Z,0.00
2017-11-11T19:22:15.580Z,0.00
2017-11-11T19:23:15.621Z,0.00
2017-11-11T19:24:15.663Z,0.00
2017-11-11T19:25:15.704Z,0.00
2017-11-11T19:26:15.747Z,0.00
2017-11-11T19:27:15.789Z,0.00
2017-11-11T19:28:15.832Z,0.00
2017-11-11T19:29:15.873Z,0.00
2017-11-11T19:30:15.916Z,0.00
2017-11-11T19:31:15.961Z,0.00
2017-11-11T19:32:15.996Z,0.00
2017-11-11T19:33:16.042Z,0.00
2017-11-11T19:34:16.085Z,0.00
2017-11-11T19:35:16.123Z,0.00
2017-11-11T19:36:16.168Z,0.00
2017-11-11T19:37:16.210Z,0.00
2017-11-11T19:38:16.250Z,0.00
2017-11-11T19:39:16.303Z,0.00
2017-11-11T19:40:16.334Z,0.00
2017-11-11T19:41:16.377Z,0.00
2017-11-11T19:42:16.478Z,0.00
2017-11-11T19:43:16.465Z,0.00
2017-11-11T19:44:16.509Z,0.00
2017-11-11T19:45:16.545Z,0.00
2017-11-11T19:46:16.586Z,0.00
2017-11-11T19:47:16.630Z,0.00
2017-11-11T19:48:16.676Z,0.00
2017-11-11T19:49:16.718Z,0.00
2017-11-11T19:50:16.757Z,0.00
2017-11-11T19:51:16.800Z,0.00
2017-11-11T19:52:16.839Z,0.00
2017-11-11T19:53:16.881Z,0.00
2017-11-11T19:54:16.928Z,0.00
2017-11-11T19:55:16.973Z,0.00
2017-11-11T19:56:17.006Z,0.00
2017-11-11T19:57:17.051Z,0.00
2017-11-11T19:58:17.092Z,0.00
2017-11-11T19:59:17.137Z,0.00
2017-11-11T20:00:17.177Z,0.00
2017-11-11T20:01:17.220Z,0.00
2017-11-11T20:02:17.260Z,0.00
2017-11-11T20:03:17.305Z,0.00
2017-11-11T20:04:17.344Z,0.00
2017-11-11T20:05:17.389Z,0.00
2017-11-11T20:06:17.432Z,0.00
2017-11-11T20:07:17.512Z,0.00
2017-11-11T20:08:17.520Z,0.00
2017-11-11T20:09:17.557Z,0.00
2017-11-11T20:10:17.637Z,0.00
2017-11-11T20:11:17.641Z,0.00
2017-11-11T20:12:17.686Z,0.00
2017-11-11T20:13:17.726Z,0.00
2017-11-11T20:14:17.769Z,0.00
2017-11-11T20:15:17.811Z,0.00
2017-11-11T20:16:17.855Z,0.00
2017-11-11T20:17:17.897Z,0.00
2017-11-11T20:18:17.936Z,0.00
2017-11-11T20:19:17.979Z,0.00
2017-11-11T20:20:18.020Z,0.00
2017-11-11T20:21:18.069Z,0.00
2017-11-11T20:22:18.107Z,0.00
2017-11-11T20:23:18.149Z,0.00
2017-11-11T20:24:18.189Z,0.00
2017-11-11T20:25:18.234Z,0.00
2017-11-11T20:26:18.276Z,0.00
2017-11-11T20:27:18.318Z,0.00
2017-11-11T20:28:18.359Z,0.00
2017-11-11T20:29:18.400Z,0.00
2017-11-11T20:30:18.443Z,0.00
2017-11-11T20:31:18.485Z,0.00
2017-11-11T20:32:18.529Z,0.00
2017-11-11T20:33:18.573Z,0.00
2017-11-11T20:34:18.610Z,0.00
2017-11-11T20:35:18.653Z,0.00
2017-11-11T20:36:18.699Z,0.00
2017-11-11T20:37:18.739Z,0.00
2017-11-11T20:38:18.779Z,0.00
2017-11-11T20:39:18.827Z,0.00
2017-11-11T20:40:18.869Z,0.00
2017-11-11T20:41:18.903Z,0.00
2017-11-11T20:42:18.949Z,0.00
2017-11-11T20:43:18.990Z,0.00
2017-11-11T20:44:19.033Z,0.00
2017-11-11T20:45:19.075Z,0.00
2017-11-11T20:46:19.117Z,0.00
2017-11-11T20:47:19.159Z,0.00
2017-11-11T20:48:19.203Z,0.00
2017-11-11T20:49:19.241Z,0.00
2017-11-11T20:50:19.282Z,0.00
2017-11-11T20:51:19.332Z,0.00
2017-11-11T20:52:19.367Z,0.00
2017-11-11T20:53:19.409Z,0.00
2017-11-11T20:54:19.451Z,0.00
2017-11-11T20:55:19.493Z,0.00
2017-11-11T20:56:19.537Z,0.00
2017-11-11T20:57:19.578Z,0.00
2017-11-11T20:58:19.623Z,0.00
2017-11-11T20:59:19.663Z,0.00
2017-11-11T21:00:19.703Z,0.00
2017-11-11T21:01:19.745Z,0.00
2017-11-11T21:02:19.787Z,0.00
2017-11-11T21:03:19.833Z,0.00
2017-11-11T21:04:19.872Z,0.00
2017-11-11T21:05:19.918Z,0.00
2017-11-11T21:06:19.958Z,0.00
2017-11-11T21:07:19.997Z,0.00
2017-11-11T21:08:20.046Z,0.00
2017-11-11T21:09:20.084Z,0.00
2017-11-11T21:10:20.127Z,0.00
2017-11-11T21:11:20.169Z,0.00
2017-11-11T21:12:20.211Z,0.00
2017-11-11T21:13:20.252Z,0.00
2017-11-11T21:14:20.295Z,0.00
2017-11-11T21:15:20.337Z,0.00
2017-11-11T21:16:20.379Z,0.00
2017-11-11T21:17:20.428Z,0.00
2017-11-11T21:18:20.464Z,0.00
2017-11-11T21:19:20.506Z,0.00
2017-11-11T21:20:20.549Z,0.00
2017-11-11T21:21:20.592Z,0.00
2017-11-11T21:22:20.634Z,0.00
2017-11-11T21:23:20.674Z,0.00
2017-11-11T21:24:20.716Z,0.00
2017-11-11T21:25:20.759Z,0.00
2017-11-11T21:26:20.803Z,0.00
2017-11-11T21:27:20.842Z,0.00
2017-11-11T21:28:20.884Z,0.00
2017-11-11T21:29:20.933Z,0.00
2017-11-11T21:30:20.970Z,0.00
2017-11-11T21:31:21.013Z,0.00
2017-11-11T21:32:21.057Z,0.00
2017-11-11T21:33:21.105Z,0.00
2017-11-11T21:34:21.138Z,0.00
2017-11-11T21:35:21.184Z,0.00
2017-11-11T21:36:21.226Z,0.00
2017-11-11T21:37:21.265Z,0.00
2017-11-11T21:38:21.308Z,0.00
2017-11-11T21:39:21.349Z,0.00
2017-11-11T21:40:21.393Z,0.00
2017-11-11T21:41:21.433Z,0.00
2017-11-11T21:42:21.475Z,0.00
2017-11-11T21:43:21.518Z,0.00
2017-11-11T21:44:21.560Z,0.00
2017-11-11T21:45:21.602Z,0.00
2017-11-11T21:46:21.644Z,0.00
2017-11-11T21:47:21.685Z,0.00
2017-11-11T21:48:21.726Z,0.00
2017-11-11T21:49:21.770Z,0.00
2017-11-11T21:50:21.812Z,0.00
2017-11-11T21:51:21.852Z,0.00
2017-11-11T21:52:21.894Z,0.00
2017-11-11T21:53:21.938Z,0.00
2017-11-11T21:54:21.984Z,0.00
2017-11-11T21:55:22.024Z,0.00
2017-11-11T21:56:22.063Z,0.00
2017-11-11T21:57:22.108Z,0.00
2017-11-11T21:58:22.148Z,0.00
2017-11-11T21:59:22.191Z,0.00
2017-11-11T22:00:22.230Z,0.00
2017-11-11T22:01:22.279Z,0.00
2017-11-11T22:02:22.320Z,0.00
2017-11-11T22:03:22.358Z,0.00
2017-11-11T22:04:22.402Z,0.00
2017-11-11T22:05:22.445Z,0.00
2017-11-11T22:06:22.488Z,0.00
2017-11-11T22:07:22.529Z,0.00
2017-11-11T22:08:22.571Z,0.00
2017-11-11T22:09:22.626Z,0.00
2017-11-11T22:10:22.659Z,0.00
2017-11-11T22:11:22.697Z,0.00
2017-11-11T22:12:22.741Z,0.00
2017-11-11T22:13:22.783Z,0.00
2017-11-11T22:14:22.831Z,0.00
2017-11-11T22:15:22.877Z,0.00
2017-11-11T22:16:22.915Z,0.00
2017-11-11T22:17:22.955Z,0.00
2017-11-11T22:18:22.999Z,0.00
2017-11-11T22:19:23.039Z,0.00
2017-11-11T22:20:23.080Z,0.00
2017-11-11T22:21:23.125Z,0.00
2017-11-11T22:22:23.168Z,0.00
2017-11-11T22:23:23.208Z,0.00
2017-11-11T22:24:23.250Z,0.00
2017-11-11T22:25:23.297Z,0.00
2017-11-11T22:26:23.339Z,0.00
2017-11-11T22:27:23.380Z,0.00
2017-11-11T22:28:23.420Z,0.00
2017-11-11T22:29:23.463Z,0.00
2017-11-11T22:30:23.506Z,0.00
2017-11-11T22:31:23.548Z,0.00
2017-11-11T22:32:23.588Z,0.00
2017-11-11T22:33:23.633Z,0.00
2017-11-11T22:34:23.675Z,0.00
2017-11-11T22:35:23.717Z,0.00
2017-11-11T22:36:23.760Z,0.00
2017-11-11T22:37:23.806Z,0.00
2017-11-11T22:38:23.845Z,0.00
2017-11-11T22:39:23.888Z,0.00
2017-11-11T22:40:23.929Z,0.00
2017-11-11T22:41:23.972Z,0.00
2017-11-11T22:42:24.013Z,0.00
2017-11-11T22:43:24.064Z,0.00
2017-11-11T22:44:24.099Z,0.00
2017-11-11T22:45:24.142Z,0.00
2017-11-11T22:46:24.184Z,0.00
2017-11-11T22:47:24.232Z,0.00
2017-11-11T22:48:24.267Z,0.00
2017-11-11T22:49:24.309Z,0.00
2017-11-11T22:50:24.361Z,0.00
2017-11-11T22:51:24.401Z,0.00
2017-11-11T22:52:24.439Z,0.00
2017-11-11T22:53:24.480Z,0.00
2017-11-11T22:54:24.524Z,0.00
2017-11-11T22:55:24.566Z,0.00
2017-11-11T22:56:24.608Z,0.00
2017-11-11T22:57:24.650Z,0.00
2017-11-11T22:58:24.690Z,0.00
2017-11-11T22:59:24.734Z,0.00
2017-11-11T23:00:24.775Z,0.00
2017-11-11T23:01:24.817Z,0.00
2017-11-11T23:02:24.859Z,0.00
2017-11-11T23:03:24.901Z,0.00
2017-11-11T23:04:24.946Z,0.00
2017-11-11T23:05:24.993Z,0.00
2017-11-11T23:06:25.029Z,0.00
2017-11-11T23:07:25.073Z,0.00
2017-11-11T23:08:25.113Z,0.00
2017-11-11T23:09:25.157Z,0.00
2017-11-11T23:10:25.197Z,0.00
2017-11-11T23:11:25.246Z,0.00
2017-11-11T23:12:25.283Z,0.00
2017-11-11T23:13:25.325Z,0.00
2017-11-11T23:14:25.374Z,0.00
2017-11-11T23:15:25.408Z,0.00
2017-11-11T23:16:25.449Z,0.00
2017-11-11T23:17:25.492Z,0.00
2017-11-11T23:18:25.537Z,0.00
2017-11-11T23:19:25.583Z,0.00
2017-11-11T23:20:25.622Z,0.00
2017-11-11T23:21:25.662Z,0.00
2017-11-11T23:22:25.706Z,0.00
2017-11-11T23:23:25.753Z,0.00
2017-11-11T23:24:25.793Z,0.00
2017-11-11T23:25:25.832Z,0.00
2017-11-11T23:26:25.875Z,0.00
2017-11-11T23:27:25.917Z,0.00
2017-11-11T23:28:25.961Z,0.00
2017-11-11T23:29:26.005Z,0.00
2017-11-11T23:30:26.045Z,0.00
2017-11-11T23:31:26.088Z,0.00
2017-11-11T23:32:26.130Z,0.00
2017-11-11T23:33:26.177Z,0.00
2017-11-11T23:34:26.216Z,0.00
2017-11-11T23:35:26.268Z,0.00
2017-11-11T23:36:26.299Z,0.00
2017-11-11T23:37:26.343Z,0.00
2017-11-11T23:38:26.386Z,0.00
2017-11-11T23:39:26.429Z,0.00
2017-11-11T23:40:26.471Z,0.00
2017-11-11T23:41:26.515Z,0.00
2017-11-11T23:42:26.556Z,0.00
2017-11-11T23:43:26.599Z,0.00
2017-11-11T23:44:26.640Z,0.00
2017-11-11T23:45:26.681Z,0.00
2017-11-11T23:46:26.727Z,0.00
2017-11-11T23:47:26.768Z,0.00
2017-11-11T23:48:26.820Z,0.00
2017-11-11T23:49:26.852Z,0.00
2017-11-11T23:50:26.897Z,0.00
2017-11-11T23:51:26.938Z,0.00
2017-11-11T23:52:26.979Z,0.00
2017-11-11T23:53:27.021Z,0.00
2017-11-11T23:54:27.068Z,0.00
2017-11-11T23:55:27.109Z,0.00
2017-11-11T23:56:27.151Z,0.00
2017-11-11T23:57:27.189Z,0.00
2017-11-11T23:58:27.235Z,0.00
2017-11-11T23:59:27.276Z,0.00
